sensor_id;sensor_type;location;lat;lon;timestamp;pressure;altitude;pressure_sealevel;temperature;humidity
49947;BME280;35839;48.662;13.300;2024-01-16T00:01:05;96503.09;;;0.63;100.00
49947;BME280;35839;48.662;13.300;2024-01-16T00:03:31;96503.31;;;0.60;100.00
49947;BME280;35839;48.662;13.300;2024-01-16T00:05:56;96506.22;;;0.55;100.00
49947;BME280;35839;48.662;13.300;2024-01-16T00:08:23;96508.19;;;0.52;100.00
49947;BME280;35839;48.662;13.300;2024-01-16T00:10:50;96508.03;;;0.66;100.00
49947;BME280;35839;48.662;13.300;2024-01-16T00:13:16;96503.22;;;0.37;100.00
49947;BME280;35839;48.662;13.300;2024-01-16T00:15:42;96503.25;;;0.49;100.00
49947;BME280;35839;48.662;13.300;2024-01-16T00:18:07;96511.78;;;0.25;100.00
49947;BME280;35839;48.662;13.300;2024-01-16T00:20:33;96509.19;;;0.62;100.00
49947;BME280;35839;48.662;13.300;2024-01-16T00:22:59;96522.78;;;0.27;100.00
49947;BME280;35839;48.662;13.300;2024-01-16T00:25:25;96527.44;;;0.22;100.00
49947;BME280;35839;48.662;13.300;2024-01-16T00:27:51;96513.44;;;0.26;100.00
49947;BME280;35839;48.662;13.300;2024-01-16T00:30:16;96512.63;;;0.50;100.00
49947;BME280;35839;48.662;13.300;2024-01-16T00:32:42;96525.06;;;0.56;100.00
49947;BME280;35839;48.662;13.300;2024-01-16T00:35:09;96517.28;;;0.45;100.00
49947;BME280;35839;48.662;13.300;2024-01-16T00:37:38;96527.06;;;0.39;100.00
49947;BME280;35839;48.662;13.300;2024-01-16T00:40:05;96523.19;;;0.58;100.00
49947;BME280;35839;48.662;13.300;2024-01-16T00:42:31;96536.72;;;0.49;100.00
49947;BME280;35839;48.662;13.300;2024-01-16T00:44:57;96534.69;;;0.17;100.00
49947;BME280;35839;48.662;13.300;2024-01-16T00:47:23;96538.09;;;0.41;100.00
49947;BME280;35839;48.662;13.300;2024-01-16T00:49:48;96536.94;;;0.58;100.00
49947;BME280;35839;48.662;13.300;2024-01-16T00:52:14;96558.13;;;0.62;100.00
49947;BME280;35839;48.662;13.300;2024-01-16T00:54:40;96555.78;;;0.59;100.00
49947;BME280;35839;48.662;13.300;2024-01-16T00:57:07;96557.84;;;0.54;100.00
49947;BME280;35839;48.662;13.300;2024-01-16T00:59:32;96557.25;;;0.74;100.00
49947;BME280;35839;48.662;13.300;2024-01-16T01:01:57;96563.59;;;0.81;100.00
49947;BME280;35839;48.662;13.300;2024-01-16T01:04:23;96566.00;;;0.48;100.00
49947;BME280;35839;48.662;13.300;2024-01-16T01:06:48;96573.00;;;0.46;100.00
49947;BME280;35839;48.662;13.300;2024-01-16T01:09:13;96571.94;;;0.61;100.00
49947;BME280;35839;48.662;13.300;2024-01-16T01:11:41;96578.50;;;0.65;100.00
49947;BME280;35839;48.662;13.300;2024-01-16T01:14:06;96581.28;;;0.75;100.00
49947;BME280;35839;48.662;13.300;2024-01-16T01:16:31;96590.72;;;0.50;100.00
49947;BME280;35839;48.662;13.300;2024-01-16T01:18:57;96583.81;;;0.51;100.00
49947;BME280;35839;48.662;13.300;2024-01-16T01:21:22;96590.47;;;0.29;100.00
49947;BME280;35839;48.662;13.300;2024-01-16T01:23:47;96594.63;;;0.56;100.00
49947;BME280;35839;48.662;13.300;2024-01-16T01:26:13;96598.53;;;0.49;100.00
49947;BME280;35839;48.662;13.300;2024-01-16T01:28:43;96610.88;;;0.69;100.00
49947;BME280;35839;48.662;13.300;2024-01-16T01:31:10;96608.28;;;0.93;100.00
49947;BME280;35839;48.662;13.300;2024-01-16T01:33:35;96614.66;;;0.76;100.00
49947;BME280;35839;48.662;13.300;2024-01-16T01:36:01;96612.88;;;0.90;100.00
49947;BME280;35839;48.662;13.300;2024-01-16T01:38:26;96613.19;;;0.85;100.00
49947;BME280;35839;48.662;13.300;2024-01-16T01:40:51;96602.22;;;0.70;100.00
49947;BME280;35839;48.662;13.300;2024-01-16T01:43:21;96624.63;;;0.57;100.00
49947;BME280;35839;48.662;13.300;2024-01-16T01:48:24;96624.19;;;0.63;100.00
49947;BME280;35839;48.662;13.300;2024-01-16T01:50:49;96624.69;;;0.68;100.00
49947;BME280;35839;48.662;13.300;2024-01-16T01:53:15;96627.34;;;0.79;100.00
49947;BME280;35839;48.662;13.300;2024-01-16T01:55:41;96620.81;;;0.50;100.00
49947;BME280;35839;48.662;13.300;2024-01-16T01:58:07;96631.78;;;0.77;100.00
49947;BME280;35839;48.662;13.300;2024-01-16T02:00:32;96633.38;;;0.54;100.00
49947;BME280;35839;48.662;13.300;2024-01-16T02:02:59;96635.00;;;0.55;100.00
49947;BME280;35839;48.662;13.300;2024-01-16T02:05:25;96625.16;;;0.36;100.00
49947;BME280;35839;48.662;13.300;2024-01-16T02:07:51;96631.41;;;0.58;100.00
49947;BME280;35839;48.662;13.300;2024-01-16T02:10:18;96625.06;;;0.25;100.00
49947;BME280;35839;48.662;13.300;2024-01-16T02:12:44;96632.56;;;0.54;100.00
49947;BME280;35839;48.662;13.300;2024-01-16T02:15:09;96639.47;;;0.40;100.00
49947;BME280;35839;48.662;13.300;2024-01-16T02:17:35;96643.19;;;0.36;100.00
49947;BME280;35839;48.662;13.300;2024-01-16T02:20:00;96644.44;;;0.31;100.00
49947;BME280;35839;48.662;13.300;2024-01-16T02:22:28;96652.59;;;0.37;100.00
49947;BME280;35839;48.662;13.300;2024-01-16T02:24:54;96642.69;;;0.31;100.00
49947;BME280;35839;48.662;13.300;2024-01-16T02:27:20;96647.63;;;0.34;100.00
49947;BME280;35839;48.662;13.300;2024-01-16T02:29:45;96661.53;;;0.32;100.00
49947;BME280;35839;48.662;13.300;2024-01-16T02:32:12;96659.91;;;0.31;100.00
49947;BME280;35839;48.662;13.300;2024-01-16T02:34:38;96653.41;;;0.38;100.00
49947;BME280;35839;48.662;13.300;2024-01-16T02:37:03;96653.72;;;0.33;100.00
49947;BME280;35839;48.662;13.300;2024-01-16T02:39:29;96654.03;;;0.29;100.00
49947;BME280;35839;48.662;13.300;2024-01-16T02:41:54;96648.84;;;0.41;100.00
49947;BME280;35839;48.662;13.300;2024-01-16T02:44:20;96655.47;;;0.33;100.00
49947;BME280;35839;48.662;13.300;2024-01-16T02:46:45;96659.16;;;0.54;100.00
49947;BME280;35839;48.662;13.300;2024-01-16T02:49:11;96662.44;;;0.44;100.00
49947;BME280;35839;48.662;13.300;2024-01-16T02:51:36;96665.53;;;0.49;100.00
49947;BME280;35839;48.662;13.300;2024-01-16T02:54:01;96672.75;;;0.18;100.00
49947;BME280;35839;48.662;13.300;2024-01-16T02:56:28;96672.75;;;0.18;100.00
49947;BME280;35839;48.662;13.300;2024-01-16T02:58:53;96673.38;;;0.22;100.00
49947;BME280;35839;48.662;13.300;2024-01-16T03:01:19;96682.63;;;0.37;100.00
49947;BME280;35839;48.662;13.300;2024-01-16T03:03:44;96682.66;;;0.24;100.00
49947;BME280;35839;48.662;13.300;2024-01-16T03:06:10;96667.44;;;0.21;100.00
49947;BME280;35839;48.662;13.300;2024-01-16T03:08:35;96672.75;;;0.44;100.00
49947;BME280;35839;48.662;13.300;2024-01-16T03:11:00;96681.94;;;0.22;100.00
49947;BME280;35839;48.662;13.300;2024-01-16T03:13:26;96687.19;;;0.33;100.00
49947;BME280;35839;48.662;13.300;2024-01-16T03:15:51;96688.06;;;0.58;100.00
49947;BME280;35839;48.662;13.300;2024-01-16T03:18:17;96692.13;;;0.49;100.00
49947;BME280;35839;48.662;13.300;2024-01-16T03:20:43;96698.94;;;0.37;100.00
49947;BME280;35839;48.662;13.300;2024-01-16T03:23:09;96700.06;;;0.33;100.00
49947;BME280;35839;48.662;13.300;2024-01-16T03:25:34;96697.50;;;0.33;100.00
49947;BME280;35839;48.662;13.300;2024-01-16T03:28:04;96692.00;;;0.51;100.00
49947;BME280;35839;48.662;13.300;2024-01-16T03:30:33;96708.41;;;0.50;100.00
49947;BME280;35839;48.662;13.300;2024-01-16T03:32:58;96702.22;;;0.39;100.00
49947;BME280;35839;48.662;13.300;2024-01-16T03:35:24;96708.69;;;0.32;100.00
49947;BME280;35839;48.662;13.300;2024-01-16T03:37:49;96704.38;;;0.46;100.00
49947;BME280;35839;48.662;13.300;2024-01-16T03:40:14;96695.41;;;0.26;100.00
49947;BME280;35839;48.662;13.300;2024-01-16T03:42:40;96700.56;;;0.38;100.00
49947;BME280;35839;48.662;13.300;2024-01-16T03:45:05;96710.25;;;0.48;100.00
49947;BME280;35839;48.662;13.300;2024-01-16T03:47:31;96708.81;;;0.44;100.00
49947;BME280;35839;48.662;13.300;2024-01-16T03:49:58;96709.25;;;0.37;100.00
49947;BME280;35839;48.662;13.300;2024-01-16T03:52:23;96705.94;;;0.35;100.00
49947;BME280;35839;48.662;13.300;2024-01-16T03:54:50;96707.78;;;0.46;100.00
49947;BME280;35839;48.662;13.300;2024-01-16T03:57:15;96706.72;;;0.49;100.00
49947;BME280;35839;48.662;13.300;2024-01-16T03:59:41;96702.44;;;0.36;100.00
49947;BME280;35839;48.662;13.300;2024-01-16T04:02:06;96698.22;;;0.10;100.00
49947;BME280;35839;48.662;13.300;2024-01-16T04:04:32;96701.28;;;0.40;100.00
49947;BME280;35839;48.662;13.300;2024-01-16T04:06:57;96706.97;;;0.33;100.00
49947;BME280;35839;48.662;13.300;2024-01-16T04:09:22;96708.22;;;0.40;100.00
49947;BME280;35839;48.662;13.300;2024-01-16T04:11:50;96709.03;;;0.40;100.00
49947;BME280;35839;48.662;13.300;2024-01-16T04:14:15;96718.88;;;0.47;100.00
49947;BME280;35839;48.662;13.300;2024-01-16T04:16:42;96713.09;;;0.05;100.00
49947;BME280;35839;48.662;13.300;2024-01-16T04:19:07;96717.59;;;0.28;100.00
49947;BME280;35839;48.662;13.300;2024-01-16T04:21:33;96725.19;;;0.30;100.00
49947;BME280;35839;48.662;13.300;2024-01-16T04:23:58;96722.63;;;0.43;100.00
49947;BME280;35839;48.662;13.300;2024-01-16T04:26:23;96730.53;;;0.39;100.00
49947;BME280;35839;48.662;13.300;2024-01-16T04:28:50;96724.91;;;0.47;100.00
49947;BME280;35839;48.662;13.300;2024-01-16T04:31:15;96725.59;;;0.11;100.00
49947;BME280;35839;48.662;13.300;2024-01-16T04:33:42;96732.50;;;0.36;100.00
49947;BME280;35839;48.662;13.300;2024-01-16T04:36:08;96733.53;;;0.46;100.00
49947;BME280;35839;48.662;13.300;2024-01-16T04:38:33;96729.22;;;0.21;100.00
49947;BME280;35839;48.662;13.300;2024-01-16T04:41:04;96734.25;;;0.23;100.00
49947;BME280;35839;48.662;13.300;2024-01-16T04:43:29;96731.69;;;0.35;100.00
49947;BME280;35839;48.662;13.300;2024-01-16T04:45:55;96736.22;;;0.32;100.00
49947;BME280;35839;48.662;13.300;2024-01-16T04:48:20;96730.94;;;0.46;100.00
49947;BME280;35839;48.662;13.300;2024-01-16T04:50:46;96735.59;;;0.03;100.00
49947;BME280;35839;48.662;13.300;2024-01-16T04:53:14;96743.91;;;0.06;100.00
49947;BME280;35839;48.662;13.300;2024-01-16T04:55:40;96745.28;;;0.25;100.00
49947;BME280;35839;48.662;13.300;2024-01-16T04:58:06;96735.75;;;-0.01;100.00
49947;BME280;35839;48.662;13.300;2024-01-16T05:00:32;96747.53;;;0.29;100.00
49947;BME280;35839;48.662;13.300;2024-01-16T05:02:58;96746.69;;;0.16;100.00
49947;BME280;35839;48.662;13.300;2024-01-16T05:05:23;96739.78;;;0.04;100.00
49947;BME280;35839;48.662;13.300;2024-01-16T05:07:49;96746.19;;;-0.02;100.00
49947;BME280;35839;48.662;13.300;2024-01-16T05:10:14;96734.72;;;0.02;100.00
49947;BME280;35839;48.662;13.300;2024-01-16T05:12:40;96735.47;;;0.04;100.00
49947;BME280;35839;48.662;13.300;2024-01-16T05:15:06;96735.34;;;-0.07;100.00
49947;BME280;35839;48.662;13.300;2024-01-16T05:17:32;96730.41;;;-0.10;100.00
49947;BME280;35839;48.662;13.300;2024-01-16T05:19:58;96732.22;;;-0.25;100.00
49947;BME280;35839;48.662;13.300;2024-01-16T05:22:23;96737.22;;;0.04;100.00
49947;BME280;35839;48.662;13.300;2024-01-16T05:24:50;96742.78;;;0.23;100.00
49947;BME280;35839;48.662;13.300;2024-01-16T05:27:16;96746.47;;;-0.07;100.00
49947;BME280;35839;48.662;13.300;2024-01-16T05:29:41;96744.41;;;-0.02;100.00
49947;BME280;35839;48.662;13.300;2024-01-16T05:32:07;96740.47;;;-0.07;100.00
49947;BME280;35839;48.662;13.300;2024-01-16T05:34:32;96740.53;;;0.06;100.00
49947;BME280;35839;48.662;13.300;2024-01-16T05:36:57;96744.19;;;-0.11;100.00
49947;BME280;35839;48.662;13.300;2024-01-16T05:39:23;96744.06;;;-0.10;100.00
49947;BME280;35839;48.662;13.300;2024-01-16T05:41:49;96746.09;;;0.12;100.00
49947;BME280;35839;48.662;13.300;2024-01-16T05:44:14;96744.44;;;0.24;100.00
49947;BME280;35839;48.662;13.300;2024-01-16T05:46:42;96741.25;;;0.08;100.00
49947;BME280;35839;48.662;13.300;2024-01-16T05:49:08;96756.59;;;0.60;100.00
49947;BME280;35839;48.662;13.300;2024-01-16T05:51:33;96751.25;;;0.12;100.00
49947;BME280;35839;48.662;13.300;2024-01-16T05:53:58;96750.44;;;0.12;100.00
49947;BME280;35839;48.662;13.300;2024-01-16T05:56:24;96753.94;;;0.24;100.00
49947;BME280;35839;48.662;13.300;2024-01-16T05:58:49;96753.47;;;-0.09;100.00
49947;BME280;35839;48.662;13.300;2024-01-16T06:01:15;96762.78;;;0.32;100.00
49947;BME280;35839;48.662;13.300;2024-01-16T06:03:40;96784.72;;;0.25;100.00
49947;BME280;35839;48.662;13.300;2024-01-16T06:06:10;96781.13;;;0.79;100.00
49947;BME280;35839;48.662;13.300;2024-01-16T06:08:35;96786.59;;;0.49;100.00
49947;BME280;35839;48.662;13.300;2024-01-16T06:11:01;96787.41;;;0.36;100.00
49947;BME280;35839;48.662;13.300;2024-01-16T06:13:26;96789.16;;;0.49;100.00
49947;BME280;35839;48.662;13.300;2024-01-16T06:15:51;96783.38;;;0.32;100.00
49947;BME280;35839;48.662;13.300;2024-01-16T06:18:17;96792.31;;;0.14;100.00
49947;BME280;35839;48.662;13.300;2024-01-16T06:20:42;96785.81;;;-0.05;100.00
49947;BME280;35839;48.662;13.300;2024-01-16T06:23:08;96794.19;;;0.25;100.00
49947;BME280;35839;48.662;13.300;2024-01-16T06:25:33;96789.78;;;-0.13;100.00
49947;BME280;35839;48.662;13.300;2024-01-16T06:27:58;96796.97;;;0.22;100.00
49947;BME280;35839;48.662;13.300;2024-01-16T06:30:24;96799.84;;;0.17;100.00
49947;BME280;35839;48.662;13.300;2024-01-16T06:32:49;96799.63;;;0.07;100.00
49947;BME280;35839;48.662;13.300;2024-01-16T06:35:16;96800.47;;;0.20;100.00
49947;BME280;35839;48.662;13.300;2024-01-16T06:37:42;96794.38;;;0.09;100.00
49947;BME280;35839;48.662;13.300;2024-01-16T06:40:08;96800.81;;;0.29;100.00
49947;BME280;35839;48.662;13.300;2024-01-16T06:42:34;96809.03;;;0.34;100.00
49947;BME280;35839;48.662;13.300;2024-01-16T06:45:03;96805.47;;;0.49;100.00
49947;BME280;35839;48.662;13.300;2024-01-16T06:47:30;96803.59;;;0.38;100.00
49947;BME280;35839;48.662;13.300;2024-01-16T06:49:56;96801.97;;;0.37;100.00
49947;BME280;35839;48.662;13.300;2024-01-16T06:52:21;96800.75;;;0.03;100.00
49947;BME280;35839;48.662;13.300;2024-01-16T06:54:46;96802.56;;;0.41;100.00
49947;BME280;35839;48.662;13.300;2024-01-16T06:57:12;96800.84;;;0.54;100.00
49947;BME280;35839;48.662;13.300;2024-01-16T06:59:37;96802.59;;;0.54;100.00
49947;BME280;35839;48.662;13.300;2024-01-16T07:02:03;96804.34;;;0.66;100.00
49947;BME280;35839;48.662;13.300;2024-01-16T07:04:29;96805.47;;;0.88;100.00
49947;BME280;35839;48.662;13.300;2024-01-16T07:06:54;96805.78;;;0.70;100.00
49947;BME280;35839;48.662;13.300;2024-01-16T07:09:20;96808.63;;;1.04;100.00
49947;BME280;35839;48.662;13.300;2024-01-16T07:11:46;96816.66;;;1.38;100.00
49947;BME280;35839;48.662;13.300;2024-01-16T07:14:12;96819.88;;;1.16;100.00
49947;BME280;35839;48.662;13.300;2024-01-16T07:16:38;96824.22;;;1.15;100.00
49947;BME280;35839;48.662;13.300;2024-01-16T07:19:04;96836.41;;;1.50;100.00
49947;BME280;35839;48.662;13.300;2024-01-16T07:21:29;96827.94;;;1.85;100.00
49947;BME280;35839;48.662;13.300;2024-01-16T07:23:55;96834.63;;;1.63;100.00
49947;BME280;35839;48.662;13.300;2024-01-16T07:26:22;96834.25;;;1.44;100.00
49947;BME280;35839;48.662;13.300;2024-01-16T07:28:48;96840.56;;;1.40;100.00
49947;BME280;35839;48.662;13.300;2024-01-16T07:31:14;96841.41;;;1.27;100.00
49947;BME280;35839;48.662;13.300;2024-01-16T07:33:41;96845.84;;;1.38;100.00
49947;BME280;35839;48.662;13.300;2024-01-16T07:36:08;96841.22;;;1.67;100.00
49947;BME280;35839;48.662;13.300;2024-01-16T07:38:33;96842.63;;;1.35;100.00
49947;BME280;35839;48.662;13.300;2024-01-16T07:40:59;96846.97;;;1.34;100.00
49947;BME280;35839;48.662;13.300;2024-01-16T07:43:24;96847.44;;;0.90;100.00
49947;BME280;35839;48.662;13.300;2024-01-16T07:45:50;96850.94;;;0.89;100.00
49947;BME280;35839;48.662;13.300;2024-01-16T07:48:15;96849.91;;;0.78;100.00
49947;BME280;35839;48.662;13.300;2024-01-16T07:50:41;96848.97;;;0.79;100.00
49947;BME280;35839;48.662;13.300;2024-01-16T07:53:06;96844.75;;;1.04;100.00
49947;BME280;35839;48.662;13.300;2024-01-16T07:55:32;96849.16;;;1.27;100.00
49947;BME280;35839;48.662;13.300;2024-01-16T07:57:57;96842.44;;;1.25;100.00
49947;BME280;35839;48.662;13.300;2024-01-16T08:00:23;96848.97;;;1.18;100.00
49947;BME280;35839;48.662;13.300;2024-01-16T08:02:49;96849.16;;;1.64;100.00
49947;BME280;35839;48.662;13.300;2024-01-16T08:05:15;96834.50;;;1.28;100.00
49947;BME280;35839;48.662;13.300;2024-01-16T08:07:43;96838.31;;;1.72;100.00
49947;BME280;35839;48.662;13.300;2024-01-16T08:10:09;96842.78;;;1.94;100.00
49947;BME280;35839;48.662;13.300;2024-01-16T08:12:34;96840.56;;;1.77;100.00
49947;BME280;35839;48.662;13.300;2024-01-16T08:15:00;96845.59;;;1.54;100.00
49947;BME280;35839;48.662;13.300;2024-01-16T08:17:25;96842.50;;;1.49;100.00
49947;BME280;35839;48.662;13.300;2024-01-16T08:19:50;96834.97;;;2.31;98.07
49947;BME280;35839;48.662;13.300;2024-01-16T08:22:16;96828.66;;;2.46;96.30
49947;BME280;35839;48.662;13.300;2024-01-16T08:24:41;96844.81;;;2.37;96.40
49947;BME280;35839;48.662;13.300;2024-01-16T08:27:07;96847.22;;;2.16;96.05
49947;BME280;35839;48.662;13.300;2024-01-16T08:29:32;96849.69;;;2.18;95.78
49947;BME280;35839;48.662;13.300;2024-01-16T08:31:58;96841.63;;;2.22;95.36
49947;BME280;35839;48.662;13.300;2024-01-16T08:34:23;96844.47;;;1.82;98.32
49947;BME280;35839;48.662;13.300;2024-01-16T08:36:48;96846.66;;;1.39;100.00
49947;BME280;35839;48.662;13.300;2024-01-16T08:39:14;96848.91;;;2.04;98.56
49947;BME280;35839;48.662;13.300;2024-01-16T08:41:41;96847.22;;;1.92;100.00
49947;BME280;35839;48.662;13.300;2024-01-16T08:44:07;96849.47;;;2.21;96.02
49947;BME280;35839;48.662;13.300;2024-01-16T08:46:32;96855.78;;;2.17;94.98
49947;BME280;35839;48.662;13.300;2024-01-16T08:48:57;96858.28;;;1.94;97.73
49947;BME280;35839;48.662;13.300;2024-01-16T08:51:22;96860.56;;;1.49;99.86
49947;BME280;35839;48.662;13.300;2024-01-16T08:53:48;96857.66;;;1.90;100.00
49947;BME280;35839;48.662;13.300;2024-01-16T08:56:13;96855.41;;;1.86;96.75
49947;BME280;35839;48.662;13.300;2024-01-16T08:58:40;96853.28;;;1.80;98.86
49947;BME280;35839;48.662;13.300;2024-01-16T09:01:05;96853.22;;;1.56;99.42
49947;BME280;35839;48.662;13.300;2024-01-16T09:03:34;96848.34;;;2.01;97.73
49947;BME280;35839;48.662;13.300;2024-01-16T09:06:00;96843.66;;;1.82;98.83
49947;BME280;35839;48.662;13.300;2024-01-16T09:08:26;96851.16;;;2.33;94.59
49947;BME280;35839;48.662;13.300;2024-01-16T09:10:56;96849.03;;;1.79;98.68
49947;BME280;35839;48.662;13.300;2024-01-16T09:13:21;96847.28;;;2.03;96.20
49947;BME280;35839;48.662;13.300;2024-01-16T09:15:48;96859.28;;;2.40;93.14
49947;BME280;35839;48.662;13.300;2024-01-16T09:18:15;96847.66;;;2.34;96.43
49947;BME280;35839;48.662;13.300;2024-01-16T09:20:41;96845.28;;;2.89;89.89
49947;BME280;35839;48.662;13.300;2024-01-16T09:23:07;96846.06;;;2.56;91.82
49947;BME280;35839;48.662;13.300;2024-01-16T09:25:33;96850.81;;;2.38;96.13
49947;BME280;35839;48.662;13.300;2024-01-16T09:28:01;96851.16;;;2.68;90.01
49947;BME280;35839;48.662;13.300;2024-01-16T09:30:26;96853.56;;;3.16;89.50
49947;BME280;35839;48.662;13.300;2024-01-16T09:32:52;96845.00;;;3.27;89.23
49947;BME280;35839;48.662;13.300;2024-01-16T09:35:17;96846.88;;;3.48;86.51
49947;BME280;35839;48.662;13.300;2024-01-16T09:37:43;96852.03;;;3.36;89.26
49947;BME280;35839;48.662;13.300;2024-01-16T09:40:09;96847.69;;;3.48;85.05
49947;BME280;35839;48.662;13.300;2024-01-16T09:42:35;96849.66;;;3.56;85.25
49947;BME280;35839;48.662;13.300;2024-01-16T09:45:01;96851.78;;;3.73;81.77
49947;BME280;35839;48.662;13.300;2024-01-16T09:47:30;96854.25;;;2.85;89.03
49947;BME280;35839;48.662;13.300;2024-01-16T09:49:59;96844.88;;;3.06;88.14
49947;BME280;35839;48.662;13.300;2024-01-16T09:52:26;96849.44;;;3.14;88.09
49947;BME280;35839;48.662;13.300;2024-01-16T09:54:51;96848.94;;;2.86;87.59
49947;BME280;35839;48.662;13.300;2024-01-16T09:57:18;96848.09;;;2.04;94.65
49947;BME280;35839;48.662;13.300;2024-01-16T09:59:47;96844.28;;;2.91;88.76
49947;BME280;35839;48.662;13.300;2024-01-16T10:02:14;96851.31;;;3.01;85.92
49947;BME280;35839;48.662;13.300;2024-01-16T10:04:41;96846.84;;;3.14;87.51
49947;BME280;35839;48.662;13.300;2024-01-16T10:07:07;96848.25;;;3.07;83.36
49947;BME280;35839;48.662;13.300;2024-01-16T10:09:34;96849.56;;;3.24;83.17
49947;BME280;35839;48.662;13.300;2024-01-16T10:12:01;96851.31;;;3.12;84.27
49947;BME280;35839;48.662;13.300;2024-01-16T10:14:28;96853.78;;;2.91;84.99
49947;BME280;35839;48.662;13.300;2024-01-16T10:17:01;96847.16;;;2.64;85.87
49947;BME280;35839;48.662;13.300;2024-01-16T10:19:50;96842.72;;;2.42;87.60
49947;BME280;35839;48.662;13.300;2024-01-16T10:22:21;96837.59;;;2.53;85.40
49947;BME280;35839;48.662;13.300;2024-01-16T10:24:50;96845.91;;;2.92;82.92
49947;BME280;35839;48.662;13.300;2024-01-16T10:27:16;96838.88;;;2.48;86.20
49947;BME280;35839;48.662;13.300;2024-01-16T10:29:57;96824.72;;;2.76;83.49
49947;BME280;35839;48.662;13.300;2024-01-16T10:32:39;96829.44;;;3.05;83.09
49947;BME280;35839;48.662;13.300;2024-01-16T10:35:09;96830.03;;;3.42;80.14
49947;BME280;35839;48.662;13.300;2024-01-16T10:37:53;96829.69;;;2.44;80.88
49947;BME280;35839;48.662;13.300;2024-01-16T10:40:25;96818.66;;;3.11;80.59
49947;BME280;35839;48.662;13.300;2024-01-16T10:43:01;96823.13;;;3.20;79.14
49947;BME280;35839;48.662;13.300;2024-01-16T10:45:28;96828.16;;;2.88;78.10
49947;BME280;35839;48.662;13.300;2024-01-16T10:48:07;96826.66;;;3.08;78.36
49947;BME280;35839;48.662;13.300;2024-01-16T10:50:34;96829.69;;;2.44;80.34
49947;BME280;35839;48.662;13.300;2024-01-16T10:53:03;96835.09;;;2.99;80.78
49947;BME280;35839;48.662;13.300;2024-01-16T10:55:29;96835.78;;;2.78;79.92
49947;BME280;35839;48.662;13.300;2024-01-16T10:57:56;96831.72;;;2.51;82.92
49947;BME280;35839;48.662;13.300;2024-01-16T11:00:23;96831.09;;;2.83;79.29
49947;BME280;35839;48.662;13.300;2024-01-16T11:03:04;96826.16;;;3.03;77.86
49947;BME280;35839;48.662;13.300;2024-01-16T11:05:31;96824.69;;;2.65;79.48
49947;BME280;35839;48.662;13.300;2024-01-16T11:07:59;96830.56;;;2.20;81.69
49947;BME280;35839;48.662;13.300;2024-01-16T11:10:27;96818.31;;;2.46;82.03
49947;BME280;35839;48.662;13.300;2024-01-16T11:12:52;96817.00;;;2.05;82.22
49947;BME280;35839;48.662;13.300;2024-01-16T11:15:20;96807.16;;;2.46;80.48
49947;BME280;35839;48.662;13.300;2024-01-16T11:17:47;96810.03;;;2.30;82.01
49947;BME280;35839;48.662;13.300;2024-01-16T11:20:13;96805.25;;;3.17;78.04
49947;BME280;35839;48.662;13.300;2024-01-16T11:22:43;96801.34;;;3.00;77.81
49947;BME280;35839;48.662;13.300;2024-01-16T11:25:13;96803.22;;;2.76;78.81
49947;BME280;35839;48.662;13.300;2024-01-16T11:27:43;96800.75;;;3.30;76.22
49947;BME280;35839;48.662;13.300;2024-01-16T11:30:10;96800.50;;;3.45;75.16
49947;BME280;35839;48.662;13.300;2024-01-16T11:32:38;96802.38;;;3.54;73.21
49947;BME280;35839;48.662;13.300;2024-01-16T11:35:06;96789.84;;;2.70;77.55
49947;BME280;35839;48.662;13.300;2024-01-16T11:37:31;96792.63;;;3.46;73.55
49947;BME280;35839;48.662;13.300;2024-01-16T11:42:43;96784.00;;;2.44;79.46
49947;BME280;35839;48.662;13.300;2024-01-16T11:48:16;96789.41;;;2.41;78.70
49947;BME280;35839;48.662;13.300;2024-01-16T11:50:42;96787.38;;;2.91;76.09
49947;BME280;35839;48.662;13.300;2024-01-16T11:53:08;96781.22;;;2.70;76.49
49947;BME280;35839;48.662;13.300;2024-01-16T11:55:59;96770.44;;;2.87;76.26
49947;BME280;35839;48.662;13.300;2024-01-16T12:00:57;96763.81;;;3.28;74.35
49947;BME280;35839;48.662;13.300;2024-01-16T12:03:23;96753.78;;;3.57;72.05
49947;BME280;35839;48.662;13.300;2024-01-16T12:06:01;96764.44;;;3.21;74.04
49947;BME280;35839;48.662;13.300;2024-01-16T12:08:27;96758.06;;;3.25;73.59
49947;BME280;35839;48.662;13.300;2024-01-16T12:10:53;96758.63;;;4.15;71.55
49947;BME280;35839;48.662;13.300;2024-01-16T12:13:19;96746.19;;;3.33;74.05
49947;BME280;35839;48.662;13.300;2024-01-16T12:15:44;96763.31;;;3.89;71.98
49947;BME280;35839;48.662;13.300;2024-01-16T12:18:18;96748.25;;;3.51;72.92
49947;BME280;35839;48.662;13.300;2024-01-16T12:20:43;96761.25;;;4.04;70.92
49947;BME280;35839;48.662;13.300;2024-01-16T12:23:09;96756.59;;;3.87;69.47
49947;BME280;35839;48.662;13.300;2024-01-16T12:25:36;96753.47;;;3.28;73.30
49947;BME280;35839;48.662;13.300;2024-01-16T12:28:06;96746.81;;;3.58;72.20
49947;BME280;35839;48.662;13.300;2024-01-16T12:30:34;96749.22;;;3.50;72.75
49947;BME280;35839;48.662;13.300;2024-01-16T12:33:06;96742.09;;;3.08;73.36
49947;BME280;35839;48.662;13.300;2024-01-16T12:35:36;96735.28;;;2.62;74.97
49947;BME280;35839;48.662;13.300;2024-01-16T12:38:04;96739.16;;;2.68;75.26
49947;BME280;35839;48.662;13.300;2024-01-16T12:40:40;96743.69;;;3.43;71.90
49947;BME280;35839;48.662;13.300;2024-01-16T12:43:08;96736.03;;;3.53;71.51
49947;BME280;35839;48.662;13.300;2024-01-16T12:45:34;96735.94;;;3.43;71.42
49947;BME280;35839;48.662;13.300;2024-01-16T12:48:01;96727.13;;;3.34;71.90
49947;BME280;35839;48.662;13.300;2024-01-16T12:50:29;96724.97;;;3.51;70.81
49947;BME280;35839;48.662;13.300;2024-01-16T12:53:11;96717.69;;;3.77;70.24
49947;BME280;35839;48.662;13.300;2024-01-16T12:55:40;96713.66;;;4.05;68.12
49947;BME280;35839;48.662;13.300;2024-01-16T13:00:45;96697.34;;;4.35;66.89
49947;BME280;35839;48.662;13.300;2024-01-16T13:03:21;96709.31;;;3.52;69.02